sensor_id;sensor_type;location;lat;lon;timestamp;P1;durP1;ratioP1;P2;durP2;ratioP2
37411;SDS011;23278;52.110;6.050;2023-02-28T00:01:26;3.85;;;2.47;;
37411;SDS011;23278;52.110;6.050;2023-02-28T00:03:52;4.23;;;2.53;;
37411;SDS011;23278;52.110;6.050;2023-02-28T00:06:18;4.90;;;2.27;;
37411;SDS011;23278;52.110;6.050;2023-02-28T00:08:44;4.67;;;2.43;;
37411;SDS011;23278;52.110;6.050;2023-02-28T00:11:11;4.00;;;2.13;;
37411;SDS011;23278;52.110;6.050;2023-02-28T00:13:39;3.97;;;1.40;;
37411;SDS011;23278;52.110;6.050;2023-02-28T00:16:09;4.00;;;1.70;;
37411;SDS011;23278;52.110;6.050;2023-02-28T00:18:38;3.40;;;1.67;;
37411;SDS011;23278;52.110;6.050;2023-02-28T00:21:05;3.57;;;1.73;;
37411;SDS011;23278;52.110;6.050;2023-02-28T00:23:32;3.67;;;1.40;;
37411;SDS011;23278;52.110;6.050;2023-02-28T00:25:58;3.67;;;1.53;;
37411;SDS011;23278;52.110;6.050;2023-02-28T00:28:24;3.27;;;1.63;;
37411;SDS011;23278;52.110;6.050;2023-02-28T00:30:50;4.17;;;1.60;;
37411;SDS011;23278;52.110;6.050;2023-02-28T00:33:16;4.67;;;1.50;;
37411;SDS011;23278;52.110;6.050;2023-02-28T00:35:42;3.43;;;1.50;;
37411;SDS011;23278;52.110;6.050;2023-02-28T00:38:12;4.97;;;1.90;;
37411;SDS011;23278;52.110;6.050;2023-02-28T00:40:38;2.70;;;1.60;;
37411;SDS011;23278;52.110;6.050;2023-02-28T00:43:04;2.40;;;1.50;;
37411;SDS011;23278;52.110;6.050;2023-02-28T00:45:30;3.93;;;1.67;;
37411;SDS011;23278;52.110;6.050;2023-02-28T00:47:56;3.60;;;1.97;;
37411;SDS011;23278;52.110;6.050;2023-02-28T00:50:22;2.13;;;1.20;;
37411;SDS011;23278;52.110;6.050;2023-02-28T00:52:48;2.40;;;1.57;;
37411;SDS011;23278;52.110;6.050;2023-02-28T00:55:14;2.70;;;1.77;;
37411;SDS011;23278;52.110;6.050;2023-02-28T00:57:40;3.53;;;1.80;;
37411;SDS011;23278;52.110;6.050;2023-02-28T01:00:06;3.83;;;2.33;;
37411;SDS011;23278;52.110;6.050;2023-02-28T01:02:33;2.73;;;1.67;;
37411;SDS011;23278;52.110;6.050;2023-02-28T01:04:59;4.15;;;2.28;;
37411;SDS011;23278;52.110;6.050;2023-02-28T01:07:28;2.90;;;2.13;;
37411;SDS011;23278;52.110;6.050;2023-02-28T01:09:54;4.17;;;1.97;;
37411;SDS011;23278;52.110;6.050;2023-02-28T01:12:20;3.00;;;2.10;;
37411;SDS011;23278;52.110;6.050;2023-02-28T01:14:46;3.73;;;1.83;;
37411;SDS011;23278;52.110;6.050;2023-02-28T01:17:12;2.60;;;1.80;;
37411;SDS011;23278;52.110;6.050;2023-02-28T01:19:38;3.65;;;1.17;;
37411;SDS011;23278;52.110;6.050;2023-02-28T01:22:04;4.23;;;1.80;;
37411;SDS011;23278;52.110;6.050;2023-02-28T01:24:31;2.73;;;1.80;;
37411;SDS011;23278;52.110;6.050;2023-02-28T01:26:57;5.75;;;2.15;;
37411;SDS011;23278;52.110;6.050;2023-02-28T01:29:23;3.13;;;1.47;;
37411;SDS011;23278;52.110;6.050;2023-02-28T01:31:49;2.45;;;1.35;;
37411;SDS011;23278;52.110;6.050;2023-02-28T01:34:15;4.77;;;1.97;;
37411;SDS011;23278;52.110;6.050;2023-02-28T01:36:40;5.63;;;1.95;;
37411;SDS011;23278;52.110;6.050;2023-02-28T01:39:06;2.93;;;1.60;;
37411;SDS011;23278;52.110;6.050;2023-02-28T01:41:33;3.83;;;2.65;;
37411;SDS011;23278;52.110;6.050;2023-02-28T01:46:32;4.03;;;2.42;;
37411;SDS011;23278;52.110;6.050;2023-02-28T01:49:02;3.33;;;1.80;;
37411;SDS011;23278;52.110;6.050;2023-02-28T01:51:42;2.28;;;1.35;;
37411;SDS011;23278;52.110;6.050;2023-02-28T01:54:26;9.25;;;2.92;;
37411;SDS011;23278;52.110;6.050;2023-02-28T01:56:56;4.20;;;1.55;;
37411;SDS011;23278;52.110;6.050;2023-02-28T01:59:48;3.10;;;1.92;;
37411;SDS011;23278;52.110;6.050;2023-02-28T02:02:12;2.95;;;1.27;;
37411;SDS011;23278;52.110;6.050;2023-02-28T02:04:46;2.30;;;1.30;;
37411;SDS011;23278;52.110;6.050;2023-02-28T02:07:20;4.25;;;1.40;;
37411;SDS011;23278;52.110;6.050;2023-02-28T02:09:47;2.40;;;1.27;;
37411;SDS011;23278;52.110;6.050;2023-02-28T02:12:21;2.97;;;1.67;;
37411;SDS011;23278;52.110;6.050;2023-02-28T02:15:16;3.47;;;1.23;;
37411;SDS011;23278;52.110;6.050;2023-02-28T02:17:48;2.40;;;1.27;;
37411;SDS011;23278;52.110;6.050;2023-02-28T02:20:26;3.13;;;1.45;;
37411;SDS011;23278;52.110;6.050;2023-02-28T02:25:47;1.97;;;1.00;;
37411;SDS011;23278;52.110;6.050;2023-02-28T02:31:23;2.07;;;0.97;;
37411;SDS011;23278;52.110;6.050;2023-02-28T02:36:51;2.70;;;1.48;;
37411;SDS011;23278;52.110;6.050;2023-02-28T02:42:14;3.45;;;1.33;;
37411;SDS011;23278;52.110;6.050;2023-02-28T02:45:03;2.63;;;1.50;;
37411;SDS011;23278;52.110;6.050;2023-02-28T02:47:34;3.55;;;1.25;;
37411;SDS011;23278;52.110;6.050;2023-02-28T02:50:04;3.97;;;1.55;;
37411;SDS011;23278;52.110;6.050;2023-02-28T02:52:34;4.72;;;1.70;;
37411;SDS011;23278;52.110;6.050;2023-02-28T02:55:05;2.95;;;1.45;;
37411;SDS011;23278;52.110;6.050;2023-02-28T02:57:35;5.03;;;2.28;;
37411;SDS011;23278;52.110;6.050;2023-02-28T03:02:35;3.80;;;1.70;;
37411;SDS011;23278;52.110;6.050;2023-02-28T03:05:08;9.48;;;1.88;;
37411;SDS011;23278;52.110;6.050;2023-02-28T03:07:44;2.13;;;1.20;;
37411;SDS011;23278;52.110;6.050;2023-02-28T03:10:31;3.05;;;2.10;;
37411;SDS011;23278;52.110;6.050;2023-02-28T03:18:40;2.17;;;1.23;;
37411;SDS011;23278;52.110;6.050;2023-02-28T03:27:07;2.65;;;1.25;;
37411;SDS011;23278;52.110;6.050;2023-02-28T03:29:42;4.15;;;2.83;;
37411;SDS011;23278;52.110;6.050;2023-02-28T03:32:24;2.55;;;1.90;;
37411;SDS011;23278;52.110;6.050;2023-02-28T03:35:02;2.67;;;1.60;;
37411;SDS011;23278;52.110;6.050;2023-02-28T03:37:31;2.78;;;1.52;;
37411;SDS011;23278;52.110;6.050;2023-02-28T03:40:05;2.63;;;1.23;;
37411;SDS011;23278;52.110;6.050;2023-02-28T03:42:39;5.32;;;2.78;;
37411;SDS011;23278;52.110;6.050;2023-02-28T03:45:13;1.80;;;1.13;;
37411;SDS011;23278;52.110;6.050;2023-02-28T03:47:49;4.60;;;1.70;;
37411;SDS011;23278;52.110;6.050;2023-02-28T03:50:33;2.47;;;1.23;;
37411;SDS011;23278;52.110;6.050;2023-02-28T03:53:04;4.75;;;1.52;;
37411;SDS011;23278;52.110;6.050;2023-02-28T03:55:44;8.13;;;2.13;;
37411;SDS011;23278;52.110;6.050;2023-02-28T03:58:24;2.90;;;1.58;;
37411;SDS011;23278;52.110;6.050;2023-02-28T04:01:05;3.28;;;1.95;;
37411;SDS011;23278;52.110;6.050;2023-02-28T04:03:42;3.15;;;1.95;;
37411;SDS011;23278;52.110;6.050;2023-02-28T04:06:13;2.88;;;1.40;;
37411;SDS011;23278;52.110;6.050;2023-02-28T04:08:44;4.00;;;1.75;;
37411;SDS011;23278;52.110;6.050;2023-02-28T04:13:47;2.38;;;1.63;;
37411;SDS011;23278;52.110;6.050;2023-02-28T04:16:13;3.10;;;1.75;;
37411;SDS011;23278;52.110;6.050;2023-02-28T04:18:40;2.83;;;1.63;;
37411;SDS011;23278;52.110;6.050;2023-02-28T04:21:08;4.10;;;1.70;;
37411;SDS011;23278;52.110;6.050;2023-02-28T04:23:35;3.58;;;1.88;;
37411;SDS011;23278;52.110;6.050;2023-02-28T04:26:01;4.35;;;1.73;;
37411;SDS011;23278;52.110;6.050;2023-02-28T04:28:27;3.60;;;1.38;;
37411;SDS011;23278;52.110;6.050;2023-02-28T04:30:57;3.08;;;1.55;;
37411;SDS011;23278;52.110;6.050;2023-02-28T04:33:25;2.05;;;1.55;;
37411;SDS011;23278;52.110;6.050;2023-02-28T04:35:58;3.35;;;1.85;;
37411;SDS011;23278;52.110;6.050;2023-02-28T04:38:25;3.35;;;1.45;;
37411;SDS011;23278;52.110;6.050;2023-02-28T04:40:50;3.30;;;1.70;;
37411;SDS011;23278;52.110;6.050;2023-02-28T04:43:16;3.63;;;1.52;;
37411;SDS011;23278;52.110;6.050;2023-02-28T04:45:42;4.65;;;2.35;;
37411;SDS011;23278;52.110;6.050;2023-02-28T04:48:08;4.65;;;1.73;;
37411;SDS011;23278;52.110;6.050;2023-02-28T04:50:34;4.43;;;1.52;;
37411;SDS011;23278;52.110;6.050;2023-02-28T04:53:00;3.63;;;1.75;;
37411;SDS011;23278;52.110;6.050;2023-02-28T04:55:25;5.05;;;1.73;;
37411;SDS011;23278;52.110;6.050;2023-02-28T04:57:51;6.45;;;3.20;;
37411;SDS011;23278;52.110;6.050;2023-02-28T05:00:17;2.25;;;1.30;;
37411;SDS011;23278;52.110;6.050;2023-02-28T05:02:43;3.95;;;1.27;;
37411;SDS011;23278;52.110;6.050;2023-02-28T05:05:09;2.63;;;1.45;;
37411;SDS011;23278;52.110;6.050;2023-02-28T05:07:35;2.47;;;1.27;;
37411;SDS011;23278;52.110;6.050;2023-02-28T05:10:01;2.55;;;1.20;;
37411;SDS011;23278;52.110;6.050;2023-02-28T05:12:28;2.83;;;1.60;;
37411;SDS011;23278;52.110;6.050;2023-02-28T05:14:54;2.70;;;1.50;;
37411;SDS011;23278;52.110;6.050;2023-02-28T05:17:20;2.80;;;1.80;;
37411;SDS011;23278;52.110;6.050;2023-02-28T05:19:46;2.70;;;1.50;;
37411;SDS011;23278;52.110;6.050;2023-02-28T05:22:14;2.53;;;1.27;;
37411;SDS011;23278;52.110;6.050;2023-02-28T05:24:44;2.35;;;1.42;;
37411;SDS011;23278;52.110;6.050;2023-02-28T05:27:10;3.03;;;1.80;;
37411;SDS011;23278;52.110;6.050;2023-02-28T05:29:36;4.07;;;1.88;;
37411;SDS011;23278;52.110;6.050;2023-02-28T05:32:10;3.50;;;2.00;;
37411;SDS011;23278;52.110;6.050;2023-02-28T05:34:40;2.20;;;1.55;;
37411;SDS011;23278;52.110;6.050;2023-02-28T05:37:10;2.72;;;1.40;;
37411;SDS011;23278;52.110;6.050;2023-02-28T05:39:38;2.80;;;1.77;;
37411;SDS011;23278;52.110;6.050;2023-02-28T05:42:04;2.83;;;1.33;;
37411;SDS011;23278;52.110;6.050;2023-02-28T05:44:30;2.28;;;1.20;;
37411;SDS011;23278;52.110;6.050;2023-02-28T05:46:56;3.88;;;1.70;;
37411;SDS011;23278;52.110;6.050;2023-02-28T05:49:22;5.22;;;1.58;;
37411;SDS011;23278;52.110;6.050;2023-02-28T05:51:48;2.83;;;1.58;;
37411;SDS011;23278;52.110;6.050;2023-02-28T05:54:14;3.10;;;1.37;;
37411;SDS011;23278;52.110;6.050;2023-02-28T05:56:40;2.38;;;1.27;;
37411;SDS011;23278;52.110;6.050;2023-02-28T05:59:09;3.45;;;1.42;;
37411;SDS011;23278;52.110;6.050;2023-02-28T06:01:40;3.33;;;1.95;;
37411;SDS011;23278;52.110;6.050;2023-02-28T06:04:13;2.60;;;1.67;;
37411;SDS011;23278;52.110;6.050;2023-02-28T06:06:46;2.20;;;0.75;;
37411;SDS011;23278;52.110;6.050;2023-02-28T06:09:15;5.22;;;1.85;;
37411;SDS011;23278;52.110;6.050;2023-02-28T06:11:42;1.88;;;1.13;;
37411;SDS011;23278;52.110;6.050;2023-02-28T06:14:12;2.22;;;1.33;;
37411;SDS011;23278;52.110;6.050;2023-02-28T06:16:41;2.20;;;1.20;;
37411;SDS011;23278;52.110;6.050;2023-02-28T06:19:08;2.92;;;1.73;;
37411;SDS011;23278;52.110;6.050;2023-02-28T06:21:34;3.90;;;1.95;;
37411;SDS011;23278;52.110;6.050;2023-02-28T06:24:01;1.83;;;1.02;;
37411;SDS011;23278;52.110;6.050;2023-02-28T06:26:27;1.48;;;0.90;;
37411;SDS011;23278;52.110;6.050;2023-02-28T06:28:53;3.08;;;1.33;;
37411;SDS011;23278;52.110;6.050;2023-02-28T06:31:19;5.75;;;1.40;;
37411;SDS011;23278;52.110;6.050;2023-02-28T06:33:45;2.60;;;0.93;;
37411;SDS011;23278;52.110;6.050;2023-02-28T06:36:12;3.72;;;1.38;;
37411;SDS011;23278;52.110;6.050;2023-02-28T06:38:39;2.30;;;1.10;;
37411;SDS011;23278;52.110;6.050;2023-02-28T06:41:06;2.55;;;1.05;;
37411;SDS011;23278;52.110;6.050;2023-02-28T06:43:34;1.63;;;0.95;;
37411;SDS011;23278;52.110;6.050;2023-02-28T06:46:03;1.55;;;0.80;;
37411;SDS011;23278;52.110;6.050;2023-02-28T06:48:32;3.00;;;1.60;;
37411;SDS011;23278;52.110;6.050;2023-02-28T06:51:17;2.03;;;1.13;;
37411;SDS011;23278;52.110;6.050;2023-02-28T06:53:48;3.20;;;1.35;;
37411;SDS011;23278;52.110;6.050;2023-02-28T06:56:15;3.47;;;1.65;;
37411;SDS011;23278;52.110;6.050;2023-02-28T06:58:42;3.05;;;1.30;;
37411;SDS011;23278;52.110;6.050;2023-02-28T07:01:15;4.03;;;2.65;;
37411;SDS011;23278;52.110;6.050;2023-02-28T07:03:41;5.90;;;2.70;;
37411;SDS011;23278;52.110;6.050;2023-02-28T07:06:08;6.95;;;1.88;;
37411;SDS011;23278;52.110;6.050;2023-02-28T07:08:34;3.83;;;1.85;;
37411;SDS011;23278;52.110;6.050;2023-02-28T07:11:01;3.25;;;1.77;;
37411;SDS011;23278;52.110;6.050;2023-02-28T07:13:27;2.65;;;1.67;;
37411;SDS011;23278;52.110;6.050;2023-02-28T07:15:54;2.97;;;1.55;;
37411;SDS011;23278;52.110;6.050;2023-02-28T07:18:21;3.58;;;1.63;;
37411;SDS011;23278;52.110;6.050;2023-02-28T07:20:48;2.78;;;1.40;;
37411;SDS011;23278;52.110;6.050;2023-02-28T07:23:14;4.40;;;1.15;;
37411;SDS011;23278;52.110;6.050;2023-02-28T07:25:40;3.17;;;1.88;;
37411;SDS011;23278;52.110;6.050;2023-02-28T07:28:05;4.18;;;1.55;;
37411;SDS011;23278;52.110;6.050;2023-02-28T07:30:31;4.50;;;2.05;;
37411;SDS011;23278;52.110;6.050;2023-02-28T07:32:57;4.40;;;1.40;;
37411;SDS011;23278;52.110;6.050;2023-02-28T07:35:23;2.55;;;1.77;;
37411;SDS011;23278;52.110;6.050;2023-02-28T07:37:49;5.28;;;1.83;;
37411;SDS011;23278;52.110;6.050;2023-02-28T07:40:15;2.33;;;1.30;;
37411;SDS011;23278;52.110;6.050;2023-02-28T07:42:43;2.72;;;1.40;;
37411;SDS011;23278;52.110;6.050;2023-02-28T07:45:09;2.90;;;1.25;;
37411;SDS011;23278;52.110;6.050;2023-02-28T07:47:37;1.52;;;1.05;;
37411;SDS011;23278;52.110;6.050;2023-02-28T07:50:05;2.95;;;1.92;;
37411;SDS011;23278;52.110;6.050;2023-02-28T07:52:32;5.15;;;1.67;;
37411;SDS011;23278;52.110;6.050;2023-02-28T07:54:58;5.57;;;2.13;;
37411;SDS011;23278;52.110;6.050;2023-02-28T07:57:24;3.05;;;1.40;;
37411;SDS011;23278;52.110;6.050;2023-02-28T07:59:50;2.85;;;1.83;;
37411;SDS011;23278;52.110;6.050;2023-02-28T08:02:17;3.33;;;1.80;;
37411;SDS011;23278;52.110;6.050;2023-02-28T08:04:43;4.05;;;1.90;;
37411;SDS011;23278;52.110;6.050;2023-02-28T08:07:09;5.05;;;2.05;;
37411;SDS011;23278;52.110;6.050;2023-02-28T08:09:38;4.57;;;1.85;;
37411;SDS011;23278;52.110;6.050;2023-02-28T08:12:06;4.28;;;2.25;;
37411;SDS011;23278;52.110;6.050;2023-02-28T08:14:32;5.03;;;2.35;;
37411;SDS011;23278;52.110;6.050;2023-02-28T08:16:58;5.07;;;1.98;;
37411;SDS011;23278;52.110;6.050;2023-02-28T08:19:24;2.47;;;1.42;;
37411;SDS011;23278;52.110;6.050;2023-02-28T08:21:50;5.15;;;2.17;;
37411;SDS011;23278;52.110;6.050;2023-02-28T08:24:16;4.07;;;1.75;;
37411;SDS011;23278;52.110;6.050;2023-02-28T08:26:42;1.88;;;1.30;;
37411;SDS011;23278;52.110;6.050;2023-02-28T08:29:08;2.97;;;1.88;;
37411;SDS011;23278;52.110;6.050;2023-02-28T08:31:34;2.38;;;1.40;;
37411;SDS011;23278;52.110;6.050;2023-02-28T08:34:04;3.10;;;1.48;;
37411;SDS011;23278;52.110;6.050;2023-02-28T08:36:31;2.50;;;1.70;;
37411;SDS011;23278;52.110;6.050;2023-02-28T08:38:57;3.22;;;1.80;;
37411;SDS011;23278;52.110;6.050;2023-02-28T08:41:24;3.50;;;1.90;;
37411;SDS011;23278;52.110;6.050;2023-02-28T08:43:51;5.32;;;2.20;;
37411;SDS011;23278;52.110;6.050;2023-02-28T08:46:18;2.67;;;1.45;;
37411;SDS011;23278;52.110;6.050;2023-02-28T08:48:45;1.58;;;0.88;;
37411;SDS011;23278;52.110;6.050;2023-02-28T08:51:15;2.92;;;1.13;;
37411;SDS011;23278;52.110;6.050;2023-02-28T08:53:43;3.90;;;1.08;;
37411;SDS011;23278;52.110;6.050;2023-02-28T08:56:12;2.72;;;1.15;;
37411;SDS011;23278;52.110;6.050;2023-02-28T08:58:39;2.95;;;0.80;;
37411;SDS011;23278;52.110;6.050;2023-02-28T09:01:12;1.50;;;0.70;;
37411;SDS011;23278;52.110;6.050;2023-02-28T09:03:38;1.45;;;0.90;;
37411;SDS011;23278;52.110;6.050;2023-02-28T09:06:07;1.10;;;0.68;;
37411;SDS011;23278;52.110;6.050;2023-02-28T09:08:34;0.82;;;0.63;;
37411;SDS011;23278;52.110;6.050;2023-02-28T09:11:00;4.78;;;0.80;;
37411;SDS011;23278;52.110;6.050;2023-02-28T09:13:27;1.80;;;1.02;;
37411;SDS011;23278;52.110;6.050;2023-02-28T09:15:53;1.17;;;0.60;;
37411;SDS011;23278;52.110;6.050;2023-02-28T09:18:20;1.48;;;0.68;;
37411;SDS011;23278;52.110;6.050;2023-02-28T09:20:46;1.27;;;0.75;;
37411;SDS011;23278;52.110;6.050;2023-02-28T09:23:12;1.30;;;0.82;;
37411;SDS011;23278;52.110;6.050;2023-02-28T09:25:44;1.20;;;0.73;;
37411;SDS011;23278;52.110;6.050;2023-02-28T09:28:17;1.35;;;0.60;;
37411;SDS011;23278;52.110;6.050;2023-02-28T09:30:45;2.50;;;1.30;;
37411;SDS011;23278;52.110;6.050;2023-02-28T09:33:12;1.73;;;0.65;;
37411;SDS011;23278;52.110;6.050;2023-02-28T09:35:38;0.88;;;0.60;;
37411;SDS011;23278;52.110;6.050;2023-02-28T09:38:04;1.20;;;0.60;;
37411;SDS011;23278;52.110;6.050;2023-02-28T09:40:35;1.00;;;0.70;;
37411;SDS011;23278;52.110;6.050;2023-02-28T09:43:04;2.85;;;1.25;;
37411;SDS011;23278;52.110;6.050;2023-02-28T09:47:59;1.20;;;0.80;;
37411;SDS011;23278;52.110;6.050;2023-02-28T09:53:09;1.42;;;0.50;;
37411;SDS011;23278;52.110;6.050;2023-02-28T09:55:57;1.52;;;0.80;;
37411;SDS011;23278;52.110;6.050;2023-02-28T10:01:22;0.80;;;0.55;;
37411;SDS011;23278;52.110;6.050;2023-02-28T10:06:30;1.27;;;0.52;;
37411;SDS011;23278;52.110;6.050;2023-02-28T10:09:13;1.25;;;0.60;;
37411;SDS011;23278;52.110;6.050;2023-02-28T10:11:39;1.23;;;0.57;;
37411;SDS011;23278;52.110;6.050;2023-02-28T10:14:14;1.13;;;0.50;;
37411;SDS011;23278;52.110;6.050;2023-02-28T10:16:58;0.90;;;0.55;;
37411;SDS011;23278;52.110;6.050;2023-02-28T10:19:33;0.75;;;0.43;;
37411;SDS011;23278;52.110;6.050;2023-02-28T10:22:20;1.30;;;0.50;;
37411;SDS011;23278;52.110;6.050;2023-02-28T10:24:55;1.48;;;0.52;;
37411;SDS011;23278;52.110;6.050;2023-02-28T10:27:31;2.35;;;0.52;;
37411;SDS011;23278;52.110;6.050;2023-02-28T10:30:00;0.98;;;0.60;;
37411;SDS011;23278;52.110;6.050;2023-02-28T10:35:15;1.40;;;0.77;;
37411;SDS011;23278;52.110;6.050;2023-02-28T10:37:50;1.63;;;0.60;;
37411;SDS011;23278;52.110;6.050;2023-02-28T10:45:29;0.93;;;0.50;;
37411;SDS011;23278;52.110;6.050;2023-02-28T10:58:31;1.55;;;0.57;;
37411;SDS011;23278;52.110;6.050;2023-02-28T11:01:24;0.85;;;0.50;;
37411;SDS011;23278;52.110;6.050;2023-02-28T11:09:27;0.90;;;0.50;;
37411;SDS011;23278;52.110;6.050;2023-02-28T11:12:00;0.80;;;0.50;;
37411;SDS011;23278;52.110;6.050;2023-02-28T11:14:28;1.35;;;0.60;;
37411;SDS011;23278;52.110;6.050;2023-02-28T11:17:02;2.15;;;0.50;;
37411;SDS011;23278;52.110;6.050;2023-02-28T11:19:47;0.50;;;0.40;;
37411;SDS011;23278;52.110;6.050;2023-02-28T11:22:18;1.50;;;0.57;;
37411;SDS011;23278;52.110;6.050;2023-02-28T11:24:47;1.27;;;0.65;;
37411;SDS011;23278;52.110;6.050;2023-02-28T11:29:55;0.93;;;0.68;;
37411;SDS011;23278;52.110;6.050;2023-02-28T11:32:22;0.85;;;0.50;;
37411;SDS011;23278;52.110;6.050;2023-02-28T11:35:00;1.17;;;0.50;;
37411;SDS011;23278;52.110;6.050;2023-02-28T11:37:30;2.80;;;0.82;;
37411;SDS011;23278;52.110;6.050;2023-02-28T11:39:57;1.35;;;0.70;;
37411;SDS011;23278;52.110;6.050;2023-02-28T11:42:27;1.02;;;0.68;;
37411;SDS011;23278;52.110;6.050;2023-02-28T11:48:16;1.05;;;0.50;;
37411;SDS011;23278;52.110;6.050;2023-02-28T11:50:56;0.82;;;0.50;;
37411;SDS011;23278;52.110;6.050;2023-02-28T12:12:54;1.15;;;0.63;;
37411;SDS011;23278;52.110;6.050;2023-02-28T12:21:08;1.33;;;0.70;;
37411;SDS011;23278;52.110;6.050;2023-02-28T12:23:57;1.40;;;0.70;;
37411;SDS011;23278;52.110;6.050;2023-02-28T12:26:40;1.10;;;0.60;;
37411;SDS011;23278;52.110;6.050;2023-02-28T12:31:38;1.40;;;0.90;;
37411;SDS011;23278;52.110;6.050;2023-02-28T12:34:12;1.40;;;0.90;;
37411;SDS011;23278;52.110;6.050;2023-02-28T12:36:48;0.80;;;0.50;;
37411;SDS011;23278;52.110;6.050;2023-02-28T12:41:53;0.68;;;0.40;;
37411;SDS011;23278;52.110;6.050;2023-02-28T12:44:32;1.98;;;0.90;;
37411;SDS011;23278;52.110;6.050;2023-02-28T12:47:15;1.63;;;0.50;;
37411;SDS011;23278;52.110;6.050;2023-02-28T12:52:11;0.80;;;0.50;;
37411;SDS011;23278;52.110;6.050;2023-02-28T12:54:44;0.57;;;0.50;;
37411;SDS011;23278;52.110;6.050;2023-02-28T13:00:11;1.15;;;0.40;;
37411;SDS011;23278;52.110;6.050;2023-02-28T13:11:37;1.45;;;0.63;;
37411;SDS011;23278;52.110;6.050;2023-02-28T13:14:05;0.80;;;0.50;;
37411;SDS011;23278;52.110;6.050;2023-02-28T13:17:17;0.80;;;0.40;;
37411;SDS011;23278;52.110;6.050;2023-02-28T13:27:57;1.63;;;0.68;;
37411;SDS011;23278;52.110;6.050;2023-02-28T13:46:25;1.83;;;0.73;;
37411;SDS011;23278;52.110;6.050;2023-02-28T13:48:51;1.15;;;0.52;;
37411;SDS011;23278;52.110;6.050;2023-02-28T13:52:00;1.10;;;0.50;;
37411;SDS011;23278;52.110;6.050;2023-02-28T13:54:32;0.82;;;0.40;;
37411;SDS011;23278;52.110;6.050;2023-02-28T13:57:11;1.48;;;0.55;;
37411;SDS011;23278;52.110;6.050;2023-02-28T13:59:48;0.88;;;0.50;;
37411;SDS011;23278;52.110;6.050;2023-02-28T14:04:56;2.75;;;0.98;;
37411;SDS011;23278;52.110;6.050;2023-02-28T14:07:41;3.22;;;1.08;;
37411;SDS011;23278;52.110;6.050;2023-02-28T14:10:33;2.13;;;0.98;;
37411;SDS011;23278;52.110;6.050;2023-02-28T14:16:08;2.08;;;0.50;;
37411;SDS011;23278;52.110;6.050;2023-02-28T14:18:37;0.95;;;0.50;;
37411;SDS011;23278;52.110;6.050;2023-02-28T14:26:49;0.43;;;0.30;;
37411;SDS011;23278;52.110;6.050;2023-02-28T14:33:10;1.20;;;0.50;;
37411;SDS011;23278;52.110;6.050;2023-02-28T14:35:57;1.38;;;0.60;;
37411;SDS011;23278;52.110;6.050;2023-02-28T14:38:29;0.90;;;0.60;;
37411;SDS011;23278;52.110;6.050;2023-02-28T14:40:58;0.73;;;0.50;;
37411;SDS011;23278;52.110;6.050;2023-02-28T14:43:28;1.25;;;0.43;;
37411;SDS011;23278;52.110;6.050;2023-02-28T14:45:55;0.93;;;0.40;;
37411;SDS011;23278;52.110;6.050;2023-02-28T14:48:24;0.88;;;0.43;;
37411;SDS011;23278;52.110;6.050;2023-02-28T14:50:53;1.10;;;0.60;;
37411;SDS011;23278;52.110;6.050;2023-02-28T14:53:22;1.23;;;0.50;;
37411;SDS011;23278;52.110;6.050;2023-02-28T14:55:51;2.08;;;0.55;;
37411;SDS011;23278;52.110;6.050;2023-02-28T14:58:22;1.42;;;0.40;;
37411;SDS011;23278;52.110;6.050;2023-02-28T15:00:56;2.83;;;0.50;;
37411;SDS011;23278;52.110;6.050;2023-02-28T15:03:31;2.42;;;0.85;;
37411;SDS011;23278;52.110;6.050;2023-02-28T15:06:03;1.70;;;0.50;;
37411;SDS011;23278;52.110;6.050;2023-02-28T15:08:37;0.82;;;0.40;;
37411;SDS011;23278;52.110;6.050;2023-02-28T15:11:07;1.10;;;0.40;;
37411;SDS011;23278;52.110;6.050;2023-02-28T15:13:43;1.38;;;0.60;;
37411;SDS011;23278;52.110;6.050;2023-02-28T15:16:18;0.90;;;0.50;;
37411;SDS011;23278;52.110;6.050;2023-02-28T15:19:04;0.73;;;0.60;;
37411;SDS011;23278;52.110;6.050;2023-02-28T15:21:34;3.65;;;1.00;;
37411;SDS011;23278;52.110;6.050;2023-02-28T15:24:04;1.25;;;0.50;;
37411;SDS011;23278;52.110;6.050;2023-02-28T15:26:55;1.25;;;0.55;;
37411;SDS011;23278;52.110;6.050;2023-02-28T15:29:25;1.23;;;0.70;;
37411;SDS011;23278;52.110;6.050;2023-02-28T15:32:03;1.02;;;0.63;;
37411;SDS011;23278;52.110;6.050;2023-02-28T15:34:37;1.40;;;0.63;;
37411;SDS011;23278;52.110;6.050;2023-02-28T15:39:53;2.33;;;1.20;;
37411;SDS011;23278;52.110;6.050;2023-02-28T15:42:22;1.42;;;0.70;;
37411;SDS011;23278;52.110;6.050;2023-02-28T15:44:52;2.15;;;0.80;;
37411;SDS011;23278;52.110;6.050;2023-02-28T15:47:19;2.83;;;0.70;;
37411;SDS011;23278;52.110;6.050;2023-02-28T15:49:57;0.95;;;0.70;;
37411;SDS011;23278;52.110;6.050;2023-02-28T15:52:29;0.90;;;0.70;;
37411;SDS011;23278;52.110;6.050;2023-02-28T15:55:20;1.20;;;0.50;;
37411;SDS011;23278;52.110;6.050;2023-02-28T15:57:56;1.50;;;0.75;;
37411;SDS011;23278;52.110;6.050;2023-02-28T16:00:26;1.88;;;0.80;;
37411;SDS011;23278;52.110;6.050;2023-02-28T16:02:53;1.75;;;0.70;;
37411;SDS011;23278;52.110;6.050;2023-02-28T16:05:29;2.10;;;1.77;;
37411;SDS011;23278;52.110;6.050;2023-02-28T16:07:58;1.65;;;0.82;;
37411;SDS011;23278;52.110;6.050;2023-02-28T16:10:26;1.13;;;0.80;;
37411;SDS011;23278;52.110;6.050;2023-02-28T16:12:54;1.63;;;0.90;;
37411;SDS011;23278;52.110;6.050;2023-02-28T16:15:29;1.45;;;0.85;;
37411;SDS011;23278;52.110;6.050;2023-02-28T16:18:00;1.85;;;0.60;;
37411;SDS011;23278;52.110;6.050;2023-02-28T16:20:29;1.63;;;0.82;;
37411;SDS011;23278;52.110;6.050;2023-02-28T16:22:55;1.00;;;0.65;;
37411;SDS011;23278;52.110;6.050;2023-02-28T16:25:26;0.90;;;0.55;;
37411;SDS011;23278;52.110;6.050;2023-02-28T16:28:08;1.80;;;1.00;;
37411;SDS011;23278;52.110;6.050;2023-02-28T16:30:44;1.80;;;1.00;;
37411;SDS011;23278;52.110;6.050;2023-02-28T16:33:10;2.33;;;1.17;;
37411;SDS011;23278;52.110;6.050;2023-02-28T16:35:36;2.42;;;1.10;;
37411;SDS011;23278;52.110;6.050;2023-02-28T16:38:02;1.52;;;1.23;;
37411;SDS011;23278;52.110;6.050;2023-02-28T16:40:28;2.63;;;1.15;;
37411;SDS011;23278;52.110;6.050;2023-02-28T16:43:00;1.58;;;0.98;;
37411;SDS011;23278;52.110;6.050;2023-02-28T16:45:29;1.95;;;1.00;;
37411;SDS011;23278;52.110;6.050;2023-02-28T16:47:55;1.77;;;0.90;;
37411;SDS011;23278;52.110;6.050;2023-02-28T16:50:22;2.45;;;1.00;;
37411;SDS011;23278;52.110;6.050;2023-02-28T16:52:50;3.70;;;1.65;;
37411;SDS011;23278;52.110;6.050;2023-02-28T16:55:20;1.92;;;1.00;;
37411;SDS011;23278;52.110;6.050;2023-02-28T16:57:53;2.47;;;1.25;;
37411;SDS011;23278;52.110;6.050;2023-02-28T17:00:21;1.23;;;0.82;;
37411;SDS011;23278;52.110;6.050;2023-02-28T17:02:47;2.38;;;0.93;;
37411;SDS011;23278;52.110;6.050;2023-02-28T17:05:13;2.38;;;1.17;;
37411;SDS011;23278;52.110;6.050;2023-02-28T17:07:40;2.38;;;1.00;;
37411;SDS011;23278;52.110;6.050;2023-02-28T17:12:36;2.58;;;1.33;;
37411;SDS011;23278;52.110;6.050;2023-02-28T17:15:02;1.45;;;1.00;;
37411;SDS011;23278;52.110;6.050;2023-02-28T17:17:28;1.85;;;1.20;;
37411;SDS011;23278;52.110;6.050;2023-02-28T17:19:55;1.45;;;0.90;;
37411;SDS011;23278;52.110;6.050;2023-02-28T17:22:21;1.73;;;0.98;;
37411;SDS011;23278;52.110;6.050;2023-02-28T17:24:47;1.75;;;0.65;;
37411;SDS011;23278;52.110;6.050;2023-02-28T17:27:13;1.33;;;0.70;;
37411;SDS011;23278;52.110;6.050;2023-02-28T17:29:39;1.17;;;0.50;;
37411;SDS011;23278;52.110;6.050;2023-02-28T17:32:05;3.75;;;0.90;;
37411;SDS011;23278;52.110;6.050;2023-02-28T17:34:31;1.35;;;0.80;;
37411;SDS011;23278;52.110;6.050;2023-02-28T17:36:56;1.45;;;0.88;;
37411;SDS011;23278;52.110;6.050;2023-02-28T17:39:23;2.05;;;1.20;;
37411;SDS011;23278;52.110;6.050;2023-02-28T17:41:53;3.67;;;1.27;;
37411;SDS011;23278;52.110;6.050;2023-02-28T17:44:20;4.53;;;2.08;;
37411;SDS011;23278;52.110;6.050;2023-02-28T17:46:46;3.03;;;1.48;;